sensor_id;sensor_type;location;lat;lon;timestamp;pressure;altitude;pressure_sealevel;temperature;humidity
54439;BME280;40347;53.848;27.498;2023-11-21T06:41:07;1012.5;;;-2.4;61.2
54439;BME280;40347;53.848;27.498;2023-11-21T06:46:59;1012.6;;;-2.4;61.2
54439;BME280;40347;53.848;27.498;2023-11-21T06:51:07;1012.6;;;-2.3;61.3
54439;BME280;40347;53.848;27.498;2023-11-21T06:56:14;1012.6;;;-2.2;61.2
54439;BME280;40347;53.848;27.498;2023-11-21T07:01:25;1012.7;;;-2.1;60.7
54439;BME280;40347;53.848;27.498;2023-11-21T07:06:23;1012.7;;;-1.9;60.6
54439;BME280;40347;53.848;27.498;2023-11-21T07:11:15;1012.7;;;-1.9;60.3
54439;BME280;40347;53.848;27.498;2023-11-21T07:16:33;1012.7;;;-1.7;60.3
54439;BME280;40347;53.848;27.498;2023-11-21T07:21:07;1012.7;;;-1.6;60
54439;BME280;40347;53.848;27.498;2023-11-21T07:26:07;1012.7;;;-1.5;59.9
54439;BME280;40347;53.848;27.498;2023-11-21T07:31:31;1012.8;;;-1.4;59.6
54439;BME280;40347;53.848;27.498;2023-11-21T07:36:07;1012.9;;;-1.4;59.6
54439;BME280;40347;53.848;27.498;2023-11-21T07:41:07;1013;;;-1.5;59.7
54439;BME280;40347;53.848;27.498;2023-11-21T07:46:49;1013;;;-1.4;59.9
54439;BME280;40347;53.848;27.498;2023-11-21T07:51:17;1013.2;;;-1.2;59.7
54439;BME280;40347;53.848;27.498;2023-11-21T07:56:15;1013.2;;;-1;59.3
54439;BME280;40347;53.848;27.498;2023-11-21T08:01:15;1013.2;;;-1;58.2
54439;BME280;40347;53.848;27.498;2023-11-21T08:06:33;1013.2;;;-1;58.5
54439;BME280;40347;53.848;27.498;2023-11-21T08:11:39;1013.2;;;-0.9;58.6
54439;BME280;40347;53.848;27.498;2023-11-21T08:16:23;1013.2;;;-0.7;58.2
54439;BME280;40347;53.848;27.498;2023-11-21T08:21:31;1013.2;;;-0.6;57.7
54439;BME280;40347;53.848;27.498;2023-11-21T08:26:07;1013.3;;;-0.5;57.3
54439;BME280;40347;53.848;27.498;2023-11-21T08:31:15;1013.1;;;-0.4;56.8
54439;BME280;40347;53.848;27.498;2023-11-21T08:36:15;1013.2;;;-0.4;56.6
54439;BME280;40347;53.848;27.498;2023-11-21T08:41:15;1013.2;;;-0.5;57
54439;BME280;40347;53.848;27.498;2023-11-21T08:46:07;1013.2;;;-0.3;57
54439;BME280;40347;53.848;27.498;2023-11-21T08:51:44;1013.3;;;-0.2;56.9
54439;BME280;40347;53.848;27.498;2023-11-21T08:56:15;1013.2;;;-0.1;56.2
54439;BME280;40347;53.848;27.498;2023-11-21T09:01:25;1013.2;;;0;56.2
54439;BME280;40347;53.848;27.498;2023-11-21T09:06:07;1013.2;;;0;55.7
54439;BME280;40347;53.848;27.498;2023-11-21T09:11:07;1013.2;;;-0.2;55.3
54439;BME280;40347;53.848;27.498;2023-11-21T09:16:19;1013.2;;;-0.2;55
54439;BME280;40347;53.848;27.498;2023-11-21T09:21:15;1013.3;;;-0.3;55.3
54439;BME280;40347;53.848;27.498;2023-11-21T09:26:19;1013.3;;;-0.3;54.8
54439;BME280;40347;53.848;27.498;2023-11-21T09:31:07;1013.2;;;-0.2;55.2
54439;BME280;40347;53.848;27.498;2023-11-21T09:36:27;1013.3;;;-0.1;55
54439;BME280;40347;53.848;27.498;2023-11-21T09:41:34;1013.3;;;-0.1;54.8
54439;BME280;40347;53.848;27.498;2023-11-21T09:46:27;1013.3;;;-0.1;54.8
54439;BME280;40347;53.848;27.498;2023-11-21T09:51:18;1013.3;;;0.1;54.3
54439;BME280;40347;53.848;27.498;2023-11-21T09:56:25;1013.3;;;0.1;53.5
54439;BME280;40347;53.848;27.498;2023-11-21T10:01:17;1013.3;;;0.2;53.6
54439;BME280;40347;53.848;27.498;2023-11-21T10:06:19;1013.4;;;0.3;52.7
54439;BME280;40347;53.848;27.498;2023-11-21T10:11:27;1013.4;;;0.1;52.7
54439;BME280;40347;53.848;27.498;2023-11-21T10:16:07;1013.4;;;0;52.4
54439;BME280;40347;53.848;27.498;2023-11-21T10:21:19;1013.4;;;-0.2;52.5
54439;BME280;40347;53.848;27.498;2023-11-21T10:26:07;1013.4;;;-0.3;52.9
54439;BME280;40347;53.848;27.498;2023-11-21T10:31:15;1013.4;;;-0.4;52.3
54439;BME280;40347;53.848;27.498;2023-11-21T10:36:07;1013.4;;;-0.6;51.9
54439;BME280;40347;53.848;27.498;2023-11-21T10:41:25;1013.4;;;-0.6;53.6
54439;BME280;40347;53.848;27.498;2023-11-21T10:46:29;1013.4;;;-0.5;52.8
54439;BME280;40347;53.848;27.498;2023-11-21T10:51:07;1013.5;;;-0.4;52.8
54439;BME280;40347;53.848;27.498;2023-11-21T10:56:19;1013.5;;;-0.4;52.4
54439;BME280;40347;53.848;27.498;2023-11-21T11:01:07;1013.5;;;-0.5;52.3
54439;BME280;40347;53.848;27.498;2023-11-21T11:06:17;1013.6;;;-0.5;52.1
54439;BME280;40347;53.848;27.498;2023-11-21T11:11:17;1013.6;;;-0.4;52.8
54439;BME280;40347;53.848;27.498;2023-11-21T11:16:08;1013.6;;;-0.3;52.7
54439;BME280;40347;53.848;27.498;2023-11-21T11:21:46;1013.6;;;-0.2;51.8
54439;BME280;40347;53.848;27.498;2023-11-21T11:26:09;1013.6;;;-0.4;51.9
54439;BME280;40347;53.848;27.498;2023-11-21T11:31:10;1013.6;;;-0.4;52.8
54439;BME280;40347;53.848;27.498;2023-11-21T11:36:27;1013.6;;;-0.4;52.5
54439;BME280;40347;53.848;27.498;2023-11-21T11:41:25;1013.7;;;-0.4;52.7
54439;BME280;40347;53.848;27.498;2023-11-21T11:46:42;1013.7;;;-0.4;52.9
54439;BME280;40347;53.848;27.498;2023-11-21T11:51:23;1013.7;;;-0.2;52.9
54439;BME280;40347;53.848;27.498;2023-11-21T11:56:19;1013.8;;;0;52.9
54439;BME280;40347;53.848;27.498;2023-11-21T12:01:13;1013.7;;;0.2;53
54439;BME280;40347;53.848;27.498;2023-11-21T12:06:07;1013.8;;;0.4;52.9
54439;BME280;40347;53.848;27.498;2023-11-21T12:11:07;1013.8;;;0.4;51.8
54439;BME280;40347;53.848;27.498;2023-11-21T12:16:07;1013.9;;;0.3;51.9
54439;BME280;40347;53.848;27.498;2023-11-21T12:21:33;1013.9;;;0.3;53
54439;BME280;40347;53.848;27.498;2023-11-21T12:26:07;1013.9;;;0.2;52.4
54439;BME280;40347;53.848;27.498;2023-11-21T12:31:07;1013.9;;;0.1;52.9
54439;BME280;40347;53.848;27.498;2023-11-21T12:36:07;1014;;;0.1;53.1
54439;BME280;40347;53.848;27.498;2023-11-21T12:41:07;1014.1;;;0;52.6
54439;BME280;40347;53.848;27.498;2023-11-21T12:46:07;1014.1;;;-0.2;52.8
54439;BME280;40347;53.848;27.498;2023-11-21T12:51:15;1014.2;;;-0.1;53.6
54439;BME280;40347;53.848;27.498;2023-11-21T12:56:15;1014.2;;;0;53.4
54439;BME280;40347;53.848;27.498;2023-11-21T13:01:27;1014.2;;;0;52.8
54439;BME280;40347;53.848;27.498;2023-11-21T13:06:15;1014.3;;;0;52.8
54439;BME280;40347;53.848;27.498;2023-11-21T13:11:25;1014.3;;;0.1;53.1
54439;BME280;40347;53.848;27.498;2023-11-21T13:16:08;1014.3;;;0;52.2
54439;BME280;40347;53.848;27.498;2023-11-21T13:21:19;1014.3;;;-0.1;52.2
54439;BME280;40347;53.848;27.498;2023-11-21T13:26:07;1014.3;;;0;52.8
54439;BME280;40347;53.848;27.498;2023-11-21T13:31:07;1014.4;;;-0.1;52.2
54439;BME280;40347;53.848;27.498;2023-11-21T13:36:08;1014.4;;;-0.5;50.7
54439;BME280;40347;53.848;27.498;2023-11-21T13:41:27;1014.4;;;-0.6;51.3
54439;BME280;40347;53.848;27.498;2023-11-21T13:46:07;1014.4;;;-0.9;51.4
54439;BME280;40347;53.848;27.498;2023-11-21T13:51:41;1014.5;;;-0.9;52.2
54439;BME280;40347;53.848;27.498;2023-11-21T13:56:25;1014.5;;;-0.9;51.7
54439;BME280;40347;53.848;27.498;2023-11-21T14:01:07;1014.5;;;-1.1;50.4
54439;BME280;40347;53.848;27.498;2023-11-21T14:06:17;1014.6;;;-1.2;51
54439;BME280;40347;53.848;27.498;2023-11-21T14:11:07;1014.6;;;-1.1;51.7
54439;BME280;40347;53.848;27.498;2023-11-21T14:16:07;1014.7;;;-1.2;50.4
54439;BME280;40347;53.848;27.498;2023-11-21T14:21:17;1014.7;;;-1.3;51
54439;BME280;40347;53.848;27.498;2023-11-21T14:26:07;1014.8;;;-1.2;51.2
54439;BME280;40347;53.848;27.498;2023-11-21T14:31:15;1014.7;;;-1.2;50.4
54439;BME280;40347;53.848;27.498;2023-11-21T14:36:15;1014.8;;;-1.3;50.6
54439;BME280;40347;53.848;27.498;2023-11-21T14:41:19;1014.8;;;-1.4;50.5
54439;BME280;40347;53.848;27.498;2023-11-21T14:46:07;1014.9;;;-1.6;49.9
54439;BME280;40347;53.848;27.498;2023-11-21T14:51:25;1014.9;;;-1.6;50.6
54439;BME280;40347;53.848;27.498;2023-11-21T14:56:19;1014.9;;;-1.5;50.7
54439;BME280;40347;53.848;27.498;2023-11-21T15:01:25;1015;;;-1.4;51.2
54439;BME280;40347;53.848;27.498;2023-11-21T15:06:07;1015;;;-1.3;50.9
54439;BME280;40347;53.848;27.498;2023-11-21T15:11:57;1015;;;-1.3;50.5
54439;BME280;40347;53.848;27.498;2023-11-21T15:16:07;1015.1;;;-1.6;50.3
54439;BME280;40347;53.848;27.498;2023-11-21T15:21:07;1015.1;;;-1.7;50.9
54439;BME280;40347;53.848;27.498;2023-11-21T15:27:01;1015.1;;;-1.7;50.6
54439;BME280;40347;53.848;27.498;2023-11-21T15:31:15;1015.1;;;-1.7;50.8
54439;BME280;40347;53.848;27.498;2023-11-21T15:36:33;1015.1;;;-1.7;50.7
54439;BME280;40347;53.848;27.498;2023-11-21T15:41:25;1015.1;;;-1.7;51
54439;BME280;40347;53.848;27.498;2023-11-21T15:46:21;1015.2;;;-1.5;51
54439;BME280;40347;53.848;27.498;2023-11-21T15:51:21;1015.2;;;-1.6;49.9
54439;BME280;40347;53.848;27.498;2023-11-21T15:56:08;1015.3;;;-1.6;50.3
54439;BME280;40347;53.848;27.498;2023-11-21T16:01:07;1015.4;;;-1.8;50.2
54439;BME280;40347;53.848;27.498;2023-11-21T16:06:07;1015.4;;;-2;50.4
54439;BME280;40347;53.848;27.498;2023-11-21T16:11:29;1015.5;;;-2;50.6
54439;BME280;40347;53.848;27.498;2023-11-21T16:16:07;1015.5;;;-2;50.4
54439;BME280;40347;53.848;27.498;2023-11-21T16:21:37;1015.6;;;-2.2;50.8
54439;BME280;40347;53.848;27.498;2023-11-21T16:26:07;1015.6;;;-2.5;51.2
54439;BME280;40347;53.848;27.498;2023-11-21T16:31:35;1015.6;;;-2.4;51.5
54439;BME280;40347;53.848;27.498;2023-11-21T16:36:37;1015.7;;;-2.4;51.5
54439;BME280;40347;53.848;27.498;2023-11-21T16:41:07;1015.7;;;-2.4;51.5
54439;BME280;40347;53.848;27.498;2023-11-21T16:46:21;1015.7;;;-2.4;51.4
54439;BME280;40347;53.848;27.498;2023-11-21T16:51:43;1015.8;;;-2.3;51.8
54439;BME280;40347;53.848;27.498;2023-11-21T16:56:49;1015.9;;;-2.3;51.1
54439;BME280;40347;53.848;27.498;2023-11-21T17:01:07;1015.9;;;-2.4;51.4
54439;BME280;40347;53.848;27.498;2023-11-21T17:06:17;1015.9;;;-2.4;51.7
54439;BME280;40347;53.848;27.498;2023-11-21T17:11:17;1016;;;-2.2;51.6
54439;BME280;40347;53.848;27.498;2023-11-21T17:16:45;1016;;;-2.2;51.2
54439;BME280;40347;53.848;27.498;2023-11-21T17:21:07;1016;;;-2.2;51.3
54439;BME280;40347;53.848;27.498;2023-11-21T17:26:07;1016.1;;;-2.3;51.4
54439;BME280;40347;53.848;27.498;2023-11-21T17:31:07;1016.1;;;-2.6;51.7
54439;BME280;40347;53.848;27.498;2023-11-21T17:36:07;1016.2;;;-2.9;52.1
54439;BME280;40347;53.848;27.498;2023-11-21T17:41:25;1016.2;;;-2.9;52.6
54439;BME280;40347;53.848;27.498;2023-11-21T17:46:19;1016.1;;;-2.6;52.4
54439;BME280;40347;53.848;27.498;2023-11-21T17:51:15;1016.2;;;-2.3;52
54439;BME280;40347;53.848;27.498;2023-11-21T17:56:15;1016.2;;;-2.2;51.7
54439;BME280;40347;53.848;27.498;2023-11-21T18:01:07;1016.2;;;-2;52
54439;BME280;40347;53.848;27.498;2023-11-21T18:06:09;1016.2;;;-1.9;51.7
54439;BME280;40347;53.848;27.498;2023-11-21T18:11:07;1016.3;;;-1.8;51
54439;BME280;40347;53.848;27.498;2023-11-21T18:16:19;1016.3;;;-1.9;51
54439;BME280;40347;53.848;27.498;2023-11-21T18:21:07;1016.3;;;-1.9;51.1
54439;BME280;40347;53.848;27.498;2023-11-21T18:26:19;1016.4;;;-2.1;50.9
54439;BME280;40347;53.848;27.498;2023-11-21T18:31:35;1016.3;;;-2.5;51.2
54439;BME280;40347;53.848;27.498;2023-11-21T18:36:21;1016.3;;;-2.5;52
54439;BME280;40347;53.848;27.498;2023-11-21T18:41:27;1016.4;;;-2.4;51.7
54439;BME280;40347;53.848;27.498;2023-11-21T18:46:23;1016.4;;;-2.4;51.8
54439;BME280;40347;53.848;27.498;2023-11-21T18:51:07;1016.4;;;-2.4;52.4
54439;BME280;40347;53.848;27.498;2023-11-21T18:56:07;1016.5;;;-2.3;52.2
54439;BME280;40347;53.848;27.498;2023-11-21T19:01:07;1016.5;;;-2.1;52.2
54439;BME280;40347;53.848;27.498;2023-11-21T19:06:37;1016.6;;;-2.2;51.3
54439;BME280;40347;53.848;27.498;2023-11-21T19:11:15;1016.6;;;-2.4;51.3
54439;BME280;40347;53.848;27.498;2023-11-21T19:16:49;1016.6;;;-2.2;50.9
54439;BME280;40347;53.848;27.498;2023-11-21T19:21:25;1016.7;;;-2.1;50.6
54439;BME280;40347;53.848;27.498;2023-11-21T19:26:07;1016.7;;;-2.2;50.4
54439;BME280;40347;53.848;27.498;2023-11-21T19:31:14;1016.7;;;-2.2;50.8
54439;BME280;40347;53.848;27.498;2023-11-21T19:36:07;1016.8;;;-2.1;50.3
54439;BME280;40347;53.848;27.498;2023-11-21T19:41:21;1016.9;;;-2.1;50.7
54439;BME280;40347;53.848;27.498;2023-11-21T19:46:07;1016.9;;;-2.1;50
54439;BME280;40347;53.848;27.498;2023-11-21T19:51:07;1016.9;;;-2.4;50.5
54439;BME280;40347;53.848;27.498;2023-11-21T19:56:25;1017;;;-2.3;50.4
54439;BME280;40347;53.848;27.498;2023-11-21T20:01:07;1017;;;-2.4;50.5
54439;BME280;40347;53.848;27.498;2023-11-21T20:06:07;1017.1;;;-2.1;51
54439;BME280;40347;53.848;27.498;2023-11-21T20:11:35;1017.1;;;-1.9;50.7
54439;BME280;40347;53.848;27.498;2023-11-21T20:16:07;1017.2;;;-1.8;49.9
54439;BME280;40347;53.848;27.498;2023-11-21T20:21:21;1017.2;;;-1.9;50.5
54439;BME280;40347;53.848;27.498;2023-11-21T20:26:20;1017.2;;;-1.8;50.2
54439;BME280;40347;53.848;27.498;2023-11-21T20:31:39;1017.2;;;-1.9;49.7
54439;BME280;40347;53.848;27.498;2023-11-21T20:36:35;1017.2;;;-2;49.9
54439;BME280;40347;53.848;27.498;2023-11-21T20:41:27;1017.2;;;-2;50.6
54439;BME280;40347;53.848;27.498;2023-11-21T20:46:07;1017.2;;;-1.8;50.6
54439;BME280;40347;53.848;27.498;2023-11-21T20:51:21;1017.2;;;-1.7;50.3
54439;BME280;40347;53.848;27.498;2023-11-21T20:56:07;1017.2;;;-1.7;50.1
54439;BME280;40347;53.848;27.498;2023-11-21T21:01:07;1017.2;;;-1.5;50.3
54439;BME280;40347;53.848;27.498;2023-11-21T21:06:41;1017.3;;;-1.4;49.6
54439;BME280;40347;53.848;27.498;2023-11-21T21:11:17;1017.3;;;-1.6;49.8
54439;BME280;40347;53.848;27.498;2023-11-21T21:16:07;1017.3;;;-1.6;49.7
54439;BME280;40347;53.848;27.498;2023-11-21T21:21:30;1017.3;;;-1.4;50.4
54439;BME280;40347;53.848;27.498;2023-11-21T21:26:47;1017.3;;;-1.3;50.3
54439;BME280;40347;53.848;27.498;2023-11-21T21:31:07;1017.4;;;-1.1;50.3
54439;BME280;40347;53.848;27.498;2023-11-21T21:36:19;1017.5;;;-1.1;49.6
54439;BME280;40347;53.848;27.498;2023-11-21T21:41:41;1017.5;;;-1.1;49.3
54439;BME280;40347;53.848;27.498;2023-11-21T21:46:07;1017.5;;;-1.3;49.2
54439;BME280;40347;53.848;27.498;2023-11-21T21:51:49;1017.6;;;-1.3;50
54439;BME280;40347;53.848;27.498;2023-11-21T21:56:07;1017.7;;;-1.2;50.4
54439;BME280;40347;53.848;27.498;2023-11-21T22:01:07;1017.6;;;-1.3;49.2
54439;BME280;40347;53.848;27.498;2023-11-21T22:07:01;1017.6;;;-1.4;50.2
54439;BME280;40347;53.848;27.498;2023-11-21T22:11:35;1017.6;;;-1.4;49.9
54439;BME280;40347;53.848;27.498;2023-11-21T22:16:35;1017.6;;;-1.3;50.3
54439;BME280;40347;53.848;27.498;2023-11-21T22:21:07;1017.5;;;-1.2;50.4
54439;BME280;40347;53.848;27.498;2023-11-21T22:26:07;1017.5;;;-1.2;50.1
54439;BME280;40347;53.848;27.498;2023-11-21T22:31:07;1017.5;;;-1.1;50
54439;BME280;40347;53.848;27.498;2023-11-21T22:36:12;1017.6;;;-1.1;49.9
54439;BME280;40347;53.848;27.498;2023-11-21T22:41:37;1017.6;;;-1.2;49.9
54439;BME280;40347;53.848;27.498;2023-11-21T22:46:15;1017.7;;;-1.2;50.1
54439;BME280;40347;53.848;27.498;2023-11-21T22:51:29;1017.7;;;-1.1;50.5
54439;BME280;40347;53.848;27.498;2023-11-21T22:56:15;1017.7;;;-1;49.5
54439;BME280;40347;53.848;27.498;2023-11-21T23:01:15;1017.7;;;-1.2;49.7
54439;BME280;40347;53.848;27.498;2023-11-21T23:06:07;1017.8;;;-1.3;50.4
54439;BME280;40347;53.848;27.498;2023-11-21T23:11:27;1017.8;;;-1.5;50.5
54439;BME280;40347;53.848;27.498;2023-11-21T23:16:21;1017.9;;;-1.5;50.9
54439;BME280;40347;53.848;27.498;2023-11-21T23:21:21;1017.9;;;-1.5;51.1
54439;BME280;40347;53.848;27.498;2023-11-21T23:26:15;1017.9;;;-1.4;51.1
54439;BME280;40347;53.848;27.498;2023-11-21T23:31:07;1018;;;-1.5;51
54439;BME280;40347;53.848;27.498;2023-11-21T23:36:07;1018;;;-1.6;51.4
54439;BME280;40347;53.848;27.498;2023-11-21T23:41:29;1018;;;-1.4;51.7
54439;BME280;40347;53.848;27.498;2023-11-21T23:46:15;1018;;;-1.2;51.4
54439;BME280;40347;53.848;27.498;2023-11-21T23:51:07;1018;;;-1;51
54439;BME280;40347;53.848;27.498;2023-11-21T23:56:07;1018.1;;;-1.1;50.8
